createdAt,value
2022-09-12T00:01:51.576Z,99.90
2022-09-12T00:04:18.613Z,99.90
2022-09-12T00:06:45.293Z,99.90
2022-09-12T00:09:14.078Z,99.90
2022-09-12T00:11:45.864Z,99.90
2022-09-12T00:14:16.106Z,99.90
2022-09-12T00:16:43.679Z,99.90
2022-09-12T00:19:11.850Z,99.90
2022-09-12T00:21:40.487Z,99.90
2022-09-12T00:24:07.887Z,99.90
2022-09-12T00:26:34.629Z,99.90
2022-09-12T00:29:01.392Z,99.90
2022-09-12T00:31:28.514Z,99.90
2022-09-12T00:33:58.099Z,99.90
2022-09-12T00:36:25.798Z,99.90
2022-09-12T00:38:54.455Z,99.90
2022-09-12T00:41:27.537Z,99.90
2022-09-12T00:43:59.153Z,99.90
2022-09-12T00:47:05.997Z,99.90
2022-09-12T00:49:41.291Z,99.90
2022-09-12T00:52:09.903Z,99.90
2022-09-12T00:54:42.729Z,99.90
2022-09-12T00:57:13.123Z,99.90
2022-09-12T00:59:46.632Z,99.90
2022-09-12T01:02:13.493Z,99.90
2022-09-12T01:04:42.159Z,99.90
2022-09-12T01:07:09.517Z,99.90
2022-09-12T01:09:36.736Z,99.90
2022-09-12T01:12:05.072Z,99.90
2022-09-12T01:14:32.511Z,99.90
2022-09-12T01:16:59.432Z,99.90
2022-09-12T01:19:28.879Z,99.90
2022-09-12T01:22:10.618Z,99.90
2022-09-12T01:24:58.998Z,99.90
2022-09-12T01:28:07.851Z,99.90
2022-09-12T01:31:03.362Z,99.90
2022-09-12T01:33:39.732Z,99.90
2022-09-12T01:36:38.360Z,99.90
2022-09-12T01:39:26.775Z,99.90
2022-09-12T01:42:17.973Z,99.90
2022-09-12T01:45:03.425Z,99.90
2022-09-12T01:47:47.446Z,99.90
2022-09-12T01:50:27.641Z,99.90
2022-09-12T01:53:04.696Z,99.90
2022-09-12T01:55:41.250Z,99.90
2022-09-12T01:58:37.202Z,99.90
2022-09-12T02:01:07.755Z,99.90
2022-09-12T02:03:44.991Z,99.90
2022-09-12T02:06:20.911Z,99.90
2022-09-12T02:08:54.435Z,99.90
2022-09-12T02:11:21.968Z,99.90
2022-09-12T02:13:56.553Z,99.90
2022-09-12T02:16:35.252Z,99.90
2022-09-12T02:19:19.802Z,99.90
2022-09-12T02:21:59.238Z,99.90
2022-09-12T02:24:33.188Z,99.90
2022-09-12T02:27:37.738Z,99.90
2022-09-12T02:30:06.557Z,99.90
2022-09-12T02:32:56.345Z,99.90
2022-09-12T02:35:28.202Z,99.90
2022-09-12T02:38:00.324Z,99.90
2022-09-12T02:40:27.782Z,99.90
2022-09-12T02:42:54.547Z,99.90
2022-09-12T02:45:23.447Z,99.90
2022-09-12T02:48:02.201Z,99.90
2022-09-12T02:50:29.182Z,99.90
2022-09-12T02:52:59.809Z,99.90
2022-09-12T02:55:30.335Z,99.90
2022-09-12T02:57:57.187Z,99.90
2022-09-12T03:00:25.080Z,99.90
2022-09-12T03:03:19.911Z,99.90
2022-09-12T03:06:12.277Z,99.90
2022-09-12T03:08:50.959Z,99.90
2022-09-12T03:11:20.788Z,99.90
2022-09-12T03:13:50.191Z,99.90
2022-09-12T03:16:46.946Z,99.90
2022-09-12T03:19:29.552Z,99.90
2022-09-12T03:22:18.220Z,99.90
2022-09-12T03:25:04.017Z,99.90
2022-09-12T03:27:36.287Z,99.90
2022-09-12T03:30:05.810Z,99.90
2022-09-12T03:32:45.457Z,99.90
2022-09-12T03:35:13.478Z,99.90
2022-09-12T03:37:40.616Z,99.90
2022-09-12T03:40:08.792Z,99.90
2022-09-12T03:42:35.591Z,99.90
2022-09-12T03:45:02.416Z,99.90
2022-09-12T03:47:29.256Z,99.90
2022-09-12T03:49:55.973Z,99.90
2022-09-12T03:52:23.092Z,99.90
2022-09-12T03:54:49.871Z,99.90
2022-09-12T03:57:16.722Z,99.90
2022-09-12T03:59:43.458Z,99.90
2022-09-12T04:02:12.969Z,99.90
2022-09-12T04:04:43.151Z,99.90
2022-09-12T04:07:11.256Z,99.90
2022-09-12T04:09:38.288Z,99.90
2022-09-12T04:12:05.548Z,99.90
2022-09-12T04:14:32.232Z,99.90
2022-09-12T04:16:58.914Z,99.90
2022-09-12T04:19:26.694Z,99.90
2022-09-12T04:21:53.585Z,99.90
2022-09-12T04:24:20.310Z,99.90
2022-09-12T04:26:47.128Z,99.90
2022-09-12T04:29:15.016Z,99.90
2022-09-12T04:31:42.604Z,99.90
2022-09-12T04:34:09.697Z,99.90
2022-09-12T04:36:36.754Z,99.90
2022-09-12T04:39:04.793Z,99.90
2022-09-12T04:41:37.462Z,99.90
2022-09-12T04:44:10.748Z,99.90
2022-09-12T04:46:42.984Z,99.90
2022-09-12T04:49:09.983Z,99.90
2022-09-12T04:51:38.652Z,99.90
2022-09-12T04:54:08.297Z,99.90
2022-09-12T04:56:38.732Z,99.90
2022-09-12T04:59:05.665Z,99.90
2022-09-12T05:01:32.692Z,99.90
2022-09-12T05:04:00.022Z,99.90
2022-09-12T05:06:32.416Z,99.90
2022-09-12T05:09:00.590Z,99.90
2022-09-12T05:11:46.795Z,99.90
2022-09-12T05:14:16.901Z,99.90
2022-09-12T05:16:47.272Z,99.90
2022-09-12T05:19:16.075Z,99.90
2022-09-12T05:21:42.751Z,99.90
2022-09-12T05:24:11.360Z,99.90
2022-09-12T05:26:38.670Z,99.90
2022-09-12T05:29:07.141Z,99.90
2022-09-12T05:31:34.717Z,99.90
2022-09-12T05:34:01.770Z,99.90
2022-09-12T05:36:30.467Z,99.90
2022-09-12T05:38:59.602Z,99.90
2022-09-12T05:41:31.633Z,99.90
2022-09-12T05:44:00.314Z,99.90
2022-09-12T05:46:29.455Z,99.90
2022-09-12T05:48:57.085Z,99.90
2022-09-12T05:51:26.637Z,99.90
2022-09-12T05:53:57.893Z,99.90
2022-09-12T05:56:27.693Z,99.90
2022-09-12T05:59:00.130Z,99.90
2022-09-12T06:01:28.615Z,99.90
2022-09-12T06:04:00.620Z,99.90
2022-09-12T06:06:28.635Z,99.90
2022-09-12T06:09:01.873Z,99.90
2022-09-12T06:11:31.152Z,99.90
2022-09-12T06:13:58.752Z,99.90
2022-09-12T06:16:30.517Z,99.90
2022-09-12T06:19:00.238Z,99.90
2022-09-12T06:21:27.325Z,99.90
2022-09-12T06:24:00.808Z,99.90
2022-09-12T06:26:29.173Z,99.90
2022-09-12T06:28:57.460Z,99.90
2022-09-12T06:31:27.042Z,99.90
2022-09-12T06:33:55.018Z,99.90
2022-09-12T06:36:24.680Z,99.90
2022-09-12T06:38:57.192Z,99.90
2022-09-12T06:41:25.211Z,99.90
2022-09-12T06:43:52.186Z,99.90
2022-09-12T06:46:19.651Z,99.90
2022-09-12T06:48:46.556Z,99.90
2022-09-12T06:51:16.436Z,99.90
2022-09-12T06:53:44.484Z,99.90
2022-09-12T06:56:15.704Z,99.90
2022-09-12T06:58:43.470Z,99.90
2022-09-12T07:01:13.566Z,99.90
2022-09-12T07:03:40.297Z,99.90
2022-09-12T07:06:09.443Z,99.90
2022-09-12T07:08:37.381Z,99.90
2022-09-12T07:11:25.574Z,99.90
2022-09-12T07:13:56.302Z,99.90
2022-09-12T07:16:23.894Z,99.90
2022-09-12T07:18:55.985Z,99.90
2022-09-12T07:21:23.149Z,99.90
2022-09-12T07:23:51.926Z,99.90
2022-09-12T07:26:18.831Z,99.90
2022-09-12T07:28:45.754Z,99.90
2022-09-12T07:31:15.151Z,99.90
2022-09-12T07:33:43.047Z,99.90
2022-09-12T07:36:18.797Z,99.90
2022-09-12T07:38:46.514Z,99.90
2022-09-12T07:41:17.258Z,99.90
2022-09-12T07:43:44.081Z,99.90
2022-09-12T07:46:14.903Z,99.90
2022-09-12T07:48:41.640Z,99.90
2022-09-12T07:51:10.816Z,99.90
2022-09-12T07:53:43.294Z,99.90
2022-09-12T07:56:11.390Z,99.90
2022-09-12T07:58:39.120Z,99.90
2022-09-12T08:01:13.125Z,99.90
2022-09-12T08:03:45.035Z,99.90
2022-09-12T08:06:14.660Z,99.90
2022-09-12T08:08:42.513Z,99.90
2022-09-12T08:11:12.318Z,99.90
2022-09-12T08:13:40.625Z,99.90
2022-09-12T08:16:11.981Z,99.90
2022-09-12T08:18:39.385Z,99.90
2022-09-12T08:21:08.539Z,99.90
2022-09-12T08:23:35.276Z,99.90
2022-09-12T08:26:06.151Z,99.90
2022-09-12T08:28:35.015Z,99.90
2022-09-12T08:31:07.231Z,99.90
2022-09-12T08:33:34.682Z,99.90
2022-09-12T08:36:10.841Z,99.90
2022-09-12T08:38:41.220Z,99.90
2022-09-12T08:41:30.297Z,99.90
2022-09-12T08:44:34.965Z,99.90
2022-09-12T08:47:13.448Z,99.90
2022-09-12T08:50:10.454Z,99.90
2022-09-12T08:52:56.686Z,99.90
2022-09-12T08:55:32.276Z,99.90
2022-09-12T08:58:01.446Z,99.90
2022-09-12T09:00:40.471Z,99.90
2022-09-12T09:03:44.298Z,99.90
2022-09-12T09:06:37.590Z,99.90
2022-09-12T09:09:40.618Z,99.90
2022-09-12T09:12:40.469Z,99.90
2022-09-12T09:15:31.646Z,99.90
2022-09-12T09:18:08.735Z,99.90
2022-09-12T09:21:06.321Z,99.90
2022-09-12T09:23:40.878Z,99.90
2022-09-12T09:26:17.327Z,99.90
2022-09-12T09:29:20.761Z,99.90
2022-09-12T09:31:54.392Z,99.90
2022-09-12T09:34:26.750Z,99.90
2022-09-12T09:37:05.829Z,99.90
2022-09-12T09:40:00.762Z,99.90
2022-09-12T09:42:53.939Z,99.90
2022-09-12T09:45:24.378Z,99.90
2022-09-12T09:47:57.161Z,99.90
2022-09-12T09:50:24.868Z,99.90
2022-09-12T09:52:54.473Z,99.90
2022-09-12T09:55:26.115Z,99.90
2022-09-12T09:57:53.294Z,99.90
2022-09-12T10:00:32.130Z,99.90
2022-09-12T10:03:04.912Z,99.90
2022-09-12T10:05:35.771Z,99.90
2022-09-12T10:08:04.300Z,99.90
2022-09-12T10:10:31.008Z,99.90
2022-09-12T10:13:25.422Z,99.90
2022-09-12T10:16:22.594Z,99.90
2022-09-12T10:18:52.352Z,99.90
2022-09-12T10:21:32.795Z,99.90
2022-09-12T10:24:04.244Z,99.90
2022-09-12T10:26:38.723Z,99.90
2022-09-12T10:29:14.891Z,99.90
2022-09-12T10:31:51.735Z,99.90
2022-09-12T10:34:32.440Z,99.90
2022-09-12T10:37:04.385Z,99.90
2022-09-12T10:39:32.444Z,99.90
2022-09-12T10:41:59.280Z,99.90
2022-09-12T10:44:28.928Z,99.90
2022-09-12T10:46:56.855Z,99.90
2022-09-12T10:49:29.887Z,99.90
2022-09-12T10:51:59.676Z,99.90
2022-09-12T10:54:27.904Z,99.90
2022-09-12T10:57:13.176Z,99.90
2022-09-12T11:00:27.985Z,99.90
2022-09-12T11:02:59.212Z,99.90
2022-09-12T11:05:56.496Z,99.90
2022-09-12T11:08:36.574Z,99.90
2022-09-12T11:11:26.801Z,99.70
2022-09-12T11:14:10.660Z,98.40
2022-09-12T11:16:52.222Z,97.60
2022-09-12T11:19:24.872Z,96.80
2022-09-12T11:22:19.360Z,95.90
2022-09-12T11:25:05.089Z,95.70
2022-09-12T11:27:42.905Z,93.60
2022-09-12T11:30:16.028Z,94.00
2022-09-12T11:33:05.596Z,94.20
2022-09-12T11:35:54.421Z,92.90
2022-09-12T11:38:49.877Z,92.60
2022-09-12T11:41:28.746Z,92.80
2022-09-12T11:44:11.439Z,93.50
2022-09-12T11:46:39.750Z,94.10
2022-09-12T11:49:09.545Z,93.80
2022-09-12T11:52:03.246Z,94.00
2022-09-12T11:54:38.224Z,94.40
2022-09-12T11:57:18.571Z,94.00
2022-09-12T11:59:58.210Z,93.70
2022-09-12T12:02:30.905Z,93.10
2022-09-12T12:05:09.397Z,91.70
2022-09-12T12:07:45.537Z,90.80
2022-09-12T12:10:32.491Z,90.80
2022-09-12T12:13:01.959Z,90.60
2022-09-12T12:15:30.730Z,91.40
2022-09-12T12:18:07.606Z,85.80
2022-09-12T12:20:35.116Z,84.20
2022-09-12T12:23:01.924Z,85.40
2022-09-12T12:25:52.845Z,85.60
2022-09-12T12:28:41.215Z,84.80
2022-09-12T12:31:09.858Z,87.20
2022-09-12T12:33:39.503Z,89.40
2022-09-12T12:36:09.308Z,90.50
2022-09-12T12:38:38.288Z,90.70
2022-09-12T12:41:17.405Z,91.60
2022-09-12T12:43:46.799Z,92.00
2022-09-12T12:46:15.679Z,92.10
2022-09-12T12:49:03.705Z,92.20
2022-09-12T12:51:49.440Z,91.60
2022-09-12T12:54:29.585Z,91.70
2022-09-12T12:57:27.115Z,92.20
2022-09-12T13:00:06.972Z,92.00
2022-09-12T13:02:38.634Z,91.50
2022-09-12T13:05:17.400Z,91.50
2022-09-12T13:07:44.927Z,91.70
2022-09-12T13:10:32.080Z,91.60
2022-09-12T13:13:03.335Z,91.80
2022-09-12T13:15:36.288Z,91.60
2022-09-12T13:18:11.189Z,91.80
2022-09-12T13:21:10.206Z,91.30
2022-09-12T13:23:36.980Z,91.40
2022-09-12T13:26:14.261Z,91.10
2022-09-12T13:28:41.033Z,90.80
2022-09-12T13:31:25.969Z,90.70
2022-09-12T13:33:59.894Z,90.50
2022-09-12T13:36:32.602Z,91.00
2022-09-12T13:39:20.124Z,91.20
2022-09-12T13:42:16.556Z,91.50
2022-09-12T13:44:52.839Z,91.20
2022-09-12T13:47:41.186Z,91.50
2022-09-12T13:50:14.082Z,91.50
2022-09-12T13:52:45.425Z,91.70
2022-09-12T13:55:29.187Z,90.80
2022-09-12T13:58:13.986Z,90.50
2022-09-12T14:00:40.704Z,90.60
2022-09-12T14:04:06.958Z,90.80
2022-09-12T14:06:50.069Z,90.50
2022-09-12T14:09:31.166Z,90.00
2022-09-12T14:11:58.782Z,90.80
2022-09-12T14:14:36.573Z,91.20
2022-09-12T14:17:18.943Z,91.70
2022-09-12T14:19:49.274Z,90.90
2022-09-12T14:22:17.959Z,90.70
2022-09-12T14:24:51.605Z,90.50
2022-09-12T14:27:26.737Z,91.10
2022-09-12T14:30:09.267Z,91.50
2022-09-12T14:32:36.223Z,91.40
2022-09-12T14:35:27.290Z,91.20
2022-09-12T14:37:53.992Z,91.50
2022-09-12T14:40:23.550Z,91.30
2022-09-12T14:42:52.767Z,90.30
2022-09-12T14:45:32.244Z,89.80
2022-09-12T14:47:59.420Z,90.30
2022-09-12T14:50:29.659Z,90.50
2022-09-12T14:53:07.906Z,90.40
2022-09-12T14:55:42.113Z,90.60
2022-09-12T14:58:21.046Z,90.70
2022-09-12T15:01:15.646Z,90.60
2022-09-12T15:03:49.523Z,90.00
2022-09-12T15:06:27.452Z,90.20
2022-09-12T15:08:55.875Z,90.90
2022-09-12T15:11:22.774Z,90.70
2022-09-12T15:13:49.764Z,90.80
2022-09-12T15:16:16.674Z,91.00
2022-09-12T15:18:43.784Z,91.20
2022-09-12T15:21:16.374Z,91.30
2022-09-12T15:23:46.669Z,91.20
2022-09-12T15:26:18.377Z,91.10
2022-09-12T15:28:45.579Z,90.90
2022-09-12T15:31:32.908Z,91.10
2022-09-12T15:34:01.489Z,91.10
2022-09-12T15:36:29.186Z,91.70
2022-09-12T15:38:56.386Z,92.20
2022-09-12T15:41:35.577Z,92.50
2022-09-12T15:44:08.062Z,92.00
2022-09-12T15:46:34.862Z,92.60
2022-09-12T15:49:01.920Z,92.00
2022-09-12T15:51:29.116Z,91.80
2022-09-12T15:53:55.925Z,91.60
2022-09-12T15:56:22.914Z,91.70
2022-09-12T15:59:05.196Z,91.70
2022-09-12T16:01:31.987Z,92.40
2022-09-12T16:03:58.718Z,91.10
2022-09-12T16:06:25.477Z,92.00
2022-09-12T16:08:52.248Z,92.00
2022-09-12T16:11:24.230Z,91.50
2022-09-12T16:13:52.914Z,91.80
2022-09-12T16:16:19.898Z,91.90
2022-09-12T16:18:46.832Z,92.50
2022-09-12T16:21:15.437Z,92.00
2022-09-12T16:23:43.700Z,92.10
2022-09-12T16:26:10.437Z,93.00
2022-09-12T16:28:37.323Z,93.30
2022-09-12T16:31:06.275Z,93.70
2022-09-12T16:33:34.159Z,93.80
2022-09-12T16:36:03.410Z,93.90
2022-09-12T16:38:30.559Z,94.00
2022-09-12T16:41:05.567Z,93.70
2022-09-12T16:43:33.982Z,93.90
2022-09-12T16:46:16.015Z,93.90
2022-09-12T16:48:50.926Z,94.20
2022-09-12T16:51:20.800Z,94.50
2022-09-12T16:53:48.709Z,94.10
2022-09-12T16:56:15.595Z,94.60
2022-09-12T16:58:43.535Z,94.90
2022-09-12T17:01:22.283Z,94.80
2022-09-12T17:03:53.086Z,94.70
2022-09-12T17:06:20.033Z,95.10
2022-09-12T17:08:51.489Z,95.00
2022-09-12T17:11:30.486Z,95.10
2022-09-12T17:14:06.986Z,95.30
2022-09-12T17:16:39.582Z,95.50
2022-09-12T17:19:06.990Z,95.70
2022-09-12T17:21:34.137Z,96.50
2022-09-12T17:24:01.229Z,97.00
2022-09-12T17:26:27.891Z,97.60
2022-09-12T17:28:54.705Z,98.30
2022-09-12T17:31:21.499Z,98.80
2022-09-12T17:33:48.354Z,98.90
2022-09-12T17:36:17.771Z,99.40
2022-09-12T17:38:46.065Z,99.90
2022-09-12T17:41:17.571Z,99.80
2022-09-12T17:43:46.342Z,99.90
2022-09-12T17:46:13.462Z,99.90
2022-09-12T17:48:40.267Z,99.90
2022-09-12T17:51:12.170Z,99.90
2022-09-12T17:53:39.171Z,99.90
2022-09-12T17:56:07.089Z,99.90
2022-09-12T17:58:34.917Z,99.90
2022-09-12T18:01:22.917Z,99.90
2022-09-12T18:03:50.674Z,99.90
2022-09-12T18:06:17.411Z,99.90
2022-09-12T18:08:44.133Z,99.90
2022-09-12T18:11:10.810Z,99.90
2022-09-12T18:13:37.562Z,99.90
2022-09-12T18:16:09.679Z,99.90
2022-09-12T18:18:37.175Z,99.90
2022-09-12T18:21:05.771Z,99.90
2022-09-12T18:23:33.371Z,99.90
2022-09-12T18:26:10.408Z,99.90
2022-09-12T18:28:39.780Z,99.90
2022-09-12T18:31:13.232Z,99.90
2022-09-12T18:33:40.525Z,99.90
2022-09-12T18:36:09.602Z,99.90
2022-09-12T18:38:36.641Z,99.90
2022-09-12T18:41:05.305Z,99.90
2022-09-12T18:43:32.476Z,99.90
2022-09-12T18:46:14.216Z,99.90
2022-09-12T18:48:41.144Z,99.90
2022-09-12T18:51:18.986Z,99.90
2022-09-12T18:53:54.710Z,99.90
2022-09-12T18:56:23.212Z,99.90
2022-09-12T18:58:54.900Z,99.90
2022-09-12T19:01:24.101Z,99.90
2022-09-12T19:03:52.260Z,99.90
2022-09-12T19:06:20.686Z,99.90
2022-09-12T19:08:48.959Z,99.90
2022-09-12T19:11:15.998Z,99.90
2022-09-12T19:13:44.882Z,99.90
2022-09-12T19:16:15.043Z,99.90
2022-09-12T19:18:42.336Z,99.90
2022-09-12T19:21:22.150Z,99.90
2022-09-12T19:23:49.617Z,99.90
2022-09-12T19:26:17.670Z,99.90
2022-09-12T19:28:45.362Z,99.90
2022-09-12T19:31:15.126Z,99.90
2022-09-12T19:33:42.451Z,99.90
2022-09-12T19:36:27.655Z,99.90
2022-09-12T19:38:59.998Z,99.90
2022-09-12T19:41:27.093Z,99.90
2022-09-12T19:43:56.154Z,99.90
2022-09-12T19:46:24.573Z,99.90
2022-09-12T19:48:52.630Z,99.90
2022-09-12T19:51:20.748Z,99.90
2022-09-12T19:53:50.152Z,99.90
2022-09-12T19:56:17.109Z,99.90
2022-09-12T19:58:46.607Z,99.90
2022-09-12T20:01:16.095Z,99.90
2022-09-12T20:03:44.686Z,99.90
2022-09-12T20:06:18.045Z,99.90
2022-09-12T20:08:45.836Z,99.90
2022-09-12T20:11:15.236Z,99.90
2022-09-12T20:13:41.991Z,99.90
2022-09-12T20:16:11.034Z,99.90
2022-09-12T20:18:38.663Z,99.90
2022-09-12T20:21:09.308Z,99.90
2022-09-12T20:23:36.069Z,99.90
2022-09-12T20:26:04.312Z,99.90
2022-09-12T20:28:31.783Z,99.90
2022-09-12T20:31:04.408Z,99.90
2022-09-12T20:33:31.929Z,99.90
2022-09-12T20:36:19.243Z,99.90
2022-09-12T20:38:54.002Z,99.90
2022-09-12T20:41:21.309Z,99.90
2022-09-12T20:43:52.193Z,99.90
2022-09-12T20:46:21.856Z,99.90
2022-09-12T20:48:49.505Z,99.90
2022-09-12T20:51:16.762Z,99.90
2022-09-12T20:53:43.417Z,99.90
2022-09-12T20:56:10.370Z,99.90
2022-09-12T20:58:41.645Z,99.90
2022-09-12T21:01:14.231Z,99.90
2022-09-12T21:03:42.806Z,99.90
2022-09-12T21:06:10.799Z,99.90
2022-09-12T21:08:37.732Z,99.90
2022-09-12T21:11:05.638Z,99.90
2022-09-12T21:13:32.623Z,99.90
2022-09-12T21:16:10.592Z,99.90
2022-09-12T21:18:37.612Z,99.90
2022-09-12T21:21:05.406Z,99.90
2022-09-12T21:23:32.817Z,99.90
2022-09-12T21:25:59.999Z,99.90
2022-09-12T21:28:26.895Z,99.90
2022-09-12T21:30:53.714Z,99.90
2022-09-12T21:33:21.218Z,99.90
2022-09-12T21:35:48.980Z,99.90
2022-09-12T21:38:16.647Z,99.90
2022-09-12T21:40:43.570Z,99.90
2022-09-12T21:43:12.729Z,99.90
2022-09-12T21:45:40.424Z,99.90
2022-09-12T21:48:07.572Z,99.90
2022-09-12T21:50:34.828Z,99.90
2022-09-12T21:53:01.556Z,99.90
2022-09-12T21:55:28.231Z,99.90
2022-09-12T21:57:55.206Z,99.90
2022-09-12T22:00:22.686Z,99.90
2022-09-12T22:02:49.808Z,99.90
2022-09-12T22:05:17.286Z,99.90
2022-09-12T22:07:44.265Z,99.90
2022-09-12T22:10:11.099Z,99.90
2022-09-12T22:12:38.687Z,99.90
2022-09-12T22:15:29.142Z,99.90
2022-09-12T22:17:54.036Z,99.90
2022-09-12T22:20:20.738Z,99.90
2022-09-12T22:23:06.041Z,99.90
2022-09-12T22:25:32.805Z,99.90
2022-09-12T22:27:59.790Z,99.90
2022-09-12T22:30:27.310Z,99.90
2022-09-12T22:32:54.056Z,99.90
2022-09-12T22:35:20.990Z,99.90
2022-09-12T22:37:48.119Z,99.90
2022-09-12T22:40:15.626Z,99.90
2022-09-12T22:42:42.496Z,99.90
2022-09-12T22:45:09.693Z,99.90
2022-09-12T22:47:36.411Z,99.90
2022-09-12T22:50:03.492Z,99.90
2022-09-12T22:52:30.389Z,99.90
2022-09-12T22:54:57.255Z,99.90
2022-09-12T22:57:24.033Z,99.90
2022-09-12T22:59:50.870Z,99.90
2022-09-12T23:02:17.655Z,99.90
2022-09-12T23:04:44.350Z,99.90
2022-09-12T23:07:11.051Z,99.90
2022-09-12T23:09:37.833Z,99.90
2022-09-12T23:12:04.611Z,99.90
2022-09-12T23:14:31.369Z,99.90
2022-09-12T23:16:58.106Z,99.90
2022-09-12T23:19:24.827Z,99.90
2022-09-12T23:21:51.506Z,99.90
2022-09-12T23:24:18.295Z,99.90
2022-09-12T23:26:44.963Z,99.90
2022-09-12T23:29:11.655Z,99.90
2022-09-12T23:31:38.417Z,99.90
2022-09-12T23:34:06.223Z,99.90
2022-09-12T23:36:33.647Z,99.90
2022-09-12T23:39:00.546Z,99.90
2022-09-12T23:41:27.399Z,99.90
2022-09-12T23:43:54.413Z,99.90
2022-09-12T23:46:21.663Z,99.90
2022-09-12T23:48:48.510Z,99.90
2022-09-12T23:51:15.669Z,99.90
2022-09-12T23:53:42.373Z,99.90
2022-09-12T23:56:09.431Z,99.90
2022-09-12T23:58:36.468Z,99.90
